Time;durP1;ratioP1;P1;durP2;ratioP2;P2;SDS_P1;SDS_P2;PMS_P1;PMS_P2;Temp;Humidity;BMP_temperature;BMP_pressure;BME280_temperature;BME280_humidity;BME280_pressure;Samples;Min_cycle;Max_cycle;Signal;HPM_P1;HPM_P2
2023/11/08 00:00:15;;;;;;;2.47;2.28;;;21.00;60.80;;;;;;5094469;28;20036;-33
2023/11/08 00:02:42;;;;;;;3.23;2.93;;;20.90;60.70;;;;;;5093849;28;20024;-34
2023/11/08 00:05:08;;;;;;;3.03;2.83;;;20.90;60.70;;;;;;5093048;28;20028;-34
2023/11/08 00:07:34;;;;;;;2.87;2.50;;;20.90;60.70;;;;;;5086746;28;20050;-34
2023/11/08 00:10:01;;;;;;;2.50;2.30;;;20.90;60.70;;;;;;5082471;28;20096;-34
2023/11/08 00:12:27;;;;;;;3.33;3.03;;;20.90;60.60;;;;;;5083675;28;20109;-34
2023/11/08 00:14:53;;;;;;;3.00;2.70;;;20.90;60.50;;;;;;5090803;28;20041;-34
2023/11/08 00:17:19;;;;;;;2.95;2.75;;;20.90;60.50;;;;;;5098117;28;20029;-34
2023/11/08 00:19:46;;;;;;;2.80;2.60;;;20.90;60.40;;;;;;5098112;28;20084;-34
2023/11/08 00:22:12;;;;;;;2.88;2.60;;;20.90;60.30;;;;;;5086771;28;20047;-34
2023/11/08 00:24:38;;;;;;;3.15;2.83;;;20.80;60.30;;;;;;5093911;28;20043;-34
2023/11/08 00:27:04;;;;;;;3.22;2.92;;;20.80;60.30;;;;;;5090786;28;20478;-34
2023/11/08 00:29:31;;;;;;;3.33;3.03;;;20.80;60.20;;;;;;5093635;28;20032;-34
2023/11/08 00:31:58;;;;;;;3.00;2.80;;;20.80;60.20;;;;;;5092595;28;20067;-34
2023/11/08 00:34:25;;;;;;;3.50;3.20;;;20.80;60.20;;;;;;5088220;28;20036;-34
2023/11/08 00:36:51;;;;;;;4.20;2.70;;;20.80;60.10;;;;;;5089912;28;20092;-34
2023/11/08 00:39:18;;;;;;;3.17;2.88;;;20.80;60.10;;;;;;5095456;28;20060;-33
2023/11/08 00:41:44;;;;;;;3.20;2.90;;;20.80;60.00;;;;;;5091195;28;20052;-34
2023/11/08 00:44:11;;;;;;;3.10;2.85;;;20.80;60.00;;;;;;5097204;28;20072;-34
2023/11/08 00:46:38;;;;;;;3.15;2.85;;;20.80;59.90;;;;;;5094111;28;20100;-33
2023/11/08 00:49:04;;;;;;;3.20;2.90;;;20.70;60.00;;;;;;5101004;28;20051;-34
2023/11/08 00:51:31;;;;;;;3.10;2.80;;;20.70;59.90;;;;;;5090257;28;20330;-34
2023/11/08 00:53:57;;;;;;;3.35;3.05;;;20.70;60.70;;;;;;5087216;28;20024;-34
2023/11/08 00:56:23;;;;;;;3.50;3.20;;;20.70;60.00;;;;;;5093718;28;20064;-34
2023/11/08 00:58:50;;;;;;;3.45;3.15;;;20.70;59.90;;;;;;5088220;28;21096;-34
2023/11/08 01:01:16;;;;;;;3.20;2.90;;;20.70;59.90;;;;;;5093557;28;20036;-39
2023/11/08 01:03:42;;;;;;;3.47;2.95;;;20.60;59.90;;;;;;5088605;28;20040;-34
2023/11/08 01:06:09;;;;;;;3.55;3.25;;;20.60;59.90;;;;;;5100371;28;20025;-34
2023/11/08 01:08:35;;;;;;;3.45;3.15;;;20.60;59.90;;;;;;5096711;28;20032;-34
2023/11/08 01:11:01;;;;;;;4.85;3.35;;;20.60;59.90;;;;;;5101462;28;20028;-34
2023/11/08 01:13:28;;;;;;;3.38;3.08;;;20.60;60.00;;;;;;5098878;28;20063;-34
2023/11/08 01:15:55;;;;;;;3.80;3.40;;;20.60;59.90;;;;;;5102433;28;20050;-34
2023/11/08 01:18:21;;;;;;;3.10;2.80;;;20.50;59.80;;;;;;5100117;28;20102;-34
2023/11/08 01:20:47;;;;;;;4.13;3.67;;;20.50;59.90;;;;;;5086771;28;20040;-34
2023/11/08 01:23:13;;;;;;;4.20;3.45;;;20.50;59.90;;;;;;5094146;28;20108;-34
2023/11/08 01:25:41;;;;;;;3.58;3.28;;;20.50;59.90;;;;;;5094373;28;20033;-33
2023/11/08 01:28:08;;;;;;;3.78;3.20;;;20.50;60.00;;;;;;5100333;28;20035;-34
2023/11/08 01:30:34;;;;;;;3.80;3.50;;;20.50;59.90;;;;;;5093510;28;20115;-33
2023/11/08 01:33:00;;;;;;;3.80;3.20;;;20.50;59.90;;;;;;5089070;28;20033;-34
2023/11/08 01:35:27;;;;;;;3.50;3.20;;;20.40;59.90;;;;;;5091946;28;20029;-33
2023/11/08 01:37:53;;;;;;;3.30;3.00;;;20.40;59.90;;;;;;5091405;28;20032;-34
2023/11/08 01:40:20;;;;;;;3.70;3.22;;;20.40;59.90;;;;;;5104357;28;20030;-34
2023/11/08 01:42:47;;;;;;;3.63;3.33;;;20.40;59.90;;;;;;5101748;28;20044;-34
2023/11/08 01:45:13;;;;;;;4.13;3.67;;;20.40;59.90;;;;;;5095827;28;20108;-34
2023/11/08 01:47:40;;;;;;;3.90;3.60;;;20.40;60.00;;;;;;5103260;28;20044;-35
2023/11/08 01:50:06;;;;;;;4.13;3.72;;;20.30;60.00;;;;;;5095763;28;20481;-34
2023/11/08 01:52:33;;;;;;;4.32;3.92;;;20.30;60.00;;;;;;5096697;28;20043;-34
2023/11/08 01:54:59;;;;;;;4.35;3.78;;;20.30;60.00;;;;;;5093926;28;20039;-35
2023/11/08 01:57:25;;;;;;;3.88;3.47;;;20.30;60.00;;;;;;5089716;28;20025;-34
2023/11/08 01:59:51;;;;;;;4.65;3.58;;;20.30;60.10;;;;;;5099985;28;20028;-34
2023/11/08 02:02:22;;;;;;;4.20;3.80;;;20.30;60.00;;;;;;5096012;28;20028;-35
2023/11/08 02:04:48;;;;;;;4.10;3.70;;;20.20;60.00;;;;;;5098273;28;20039;-33
2023/11/08 02:07:14;;;;;;;4.13;3.72;;;20.30;60.10;;;;;;5097756;28;20027;-34
2023/11/08 02:09:41;;;;;;;3.58;3.28;;;20.20;60.10;;;;;;5096176;28;20032;-34
2023/11/08 02:12:07;;;;;;;4.35;3.97;;;20.20;60.10;;;;;;5102153;28;20052;-34
2023/11/08 02:14:33;;;;;;;4.03;3.63;;;20.20;60.10;;;;;;5096676;28;20093;-34
2023/11/08 02:17:00;;;;;;;4.32;3.70;;;20.20;60.20;;;;;;5106153;28;20066;-34
2023/11/08 02:19:27;;;;;;;4.45;4.05;;;20.20;60.20;;;;;;5103214;28;20484;-34
2023/11/08 02:21:53;;;;;;;4.32;3.88;;;20.10;60.20;;;;;;5094731;28;20044;-35
2023/11/08 02:24:23;;;;;;;3.90;3.60;;;20.20;60.30;;;;;;5102675;28;20077;-34
2023/11/08 02:26:49;;;;;;;4.10;3.70;;;20.10;60.20;;;;;;5101730;28;20031;-34
2023/11/08 02:29:17;;;;;;;4.67;4.20;;;20.10;60.20;;;;;;5095763;28;20057;-35
2023/11/08 02:31:50;;;;;;;4.70;4.30;;;20.10;60.20;;;;;;5094673;28;20050;-34
2023/11/08 02:34:17;;;;;;;4.30;3.90;;;20.10;60.30;;;;;;5095696;28;20437;-34
2023/11/08 02:36:43;;;;;;;4.55;4.15;;;20.00;60.30;;;;;;5098906;28;20036;-34
2023/11/08 02:39:10;;;;;;;4.93;4.43;;;20.00;60.30;;;;;;5102709;28;20020;-34
2023/11/08 02:41:36;;;;;;;4.35;3.92;;;20.00;60.30;;;;;;5101950;28;20032;-34
2023/11/08 02:44:03;;;;;;;5.90;4.40;;;20.00;61.10;;;;;;5101459;28;20051;-34
2023/11/08 02:46:30;;;;;;;4.57;4.18;;;20.00;61.10;;;;;;5092792;28;20032;-34
2023/11/08 02:48:57;;;;;;;5.57;4.30;;;20.00;60.40;;;;;;5099777;28;20039;-35
2023/11/08 02:51:28;;;;;;;5.03;4.10;;;19.90;60.40;;;;;;5102217;28;20036;-34
2023/11/08 02:53:54;;;;;;;5.05;4.55;;;19.90;60.40;;;;;;5101378;28;20032;-33
2023/11/08 02:56:20;;;;;;;4.85;4.43;;;19.90;60.50;;;;;;5102844;28;20051;-35
2023/11/08 02:58:46;;;;;;;5.45;4.95;;;19.90;60.40;;;;;;5101532;28;20080;-33
2023/11/08 03:01:13;;;;;;;5.40;4.28;;;19.90;60.60;;;;;;5098606;28;20048;-34
2023/11/08 03:03:39;;;;;;;4.80;4.40;;;19.90;60.50;;;;;;5098403;28;20332;-33
2023/11/08 03:06:05;;;;;;;4.78;4.38;;;19.90;60.50;;;;;;5101326;28;20043;-34
2023/11/08 03:08:33;;;;;;;5.60;4.70;;;19.90;60.60;;;;;;5091882;28;20031;-33
2023/11/08 03:11:00;;;;;;;5.32;4.82;;;19.80;60.50;;;;;;5099104;28;20035;-34
2023/11/08 03:13:26;;;;;;;5.10;4.60;;;19.80;60.60;;;;;;5096579;28;20036;-33
2023/11/08 03:15:52;;;;;;;4.80;4.40;;;19.80;60.60;;;;;;5102433;28;20557;-34
2023/11/08 03:18:18;;;;;;;3.93;3.63;;;19.80;60.70;;;;;;5101453;28;20036;-33
2023/11/08 03:20:46;;;;;;;5.30;4.60;;;19.70;60.60;;;;;;5101576;28;20284;-33
2023/11/08 03:23:12;;;;;;;5.30;4.82;;;19.70;60.60;;;;;;5094741;28;20028;-34
2023/11/08 03:25:38;;;;;;;4.85;4.30;;;19.70;60.70;;;;;;5102216;28;20515;-34
2023/11/08 03:28:04;;;;;;;5.10;4.60;;;19.70;60.70;;;;;;5094193;28;20064;-34
2023/11/08 03:30:31;;;;;;;5.10;4.60;;;19.70;60.70;;;;;;5095062;28;20092;-34
2023/11/08 03:32:58;;;;;;;5.40;4.90;;;19.70;60.80;;;;;;5098501;28;20554;-34
2023/11/08 03:35:24;;;;;;;5.43;4.93;;;19.70;60.90;;;;;;5098398;28;20044;-34
2023/11/08 03:37:50;;;;;;;5.05;4.55;;;19.60;60.80;;;;;;5097351;28;20581;-34
2023/11/08 03:40:17;;;;;;;5.57;5.07;;;19.60;60.90;;;;;;5094388;28;20024;-34
2023/11/08 03:42:44;;;;;;;5.72;5.10;;;19.60;60.90;;;;;;5100929;28;20035;-34
2023/11/08 03:45:10;;;;;;;5.80;5.20;;;19.60;61.00;;;;;;5100756;28;20036;-34
2023/11/08 03:47:38;;;;;;;5.90;5.30;;;19.60;61.00;;;;;;5101456;28;20111;-34
2023/11/08 03:50:05;;;;;;;5.35;4.85;;;19.60;61.00;;;;;;5098086;28;20111;-34
2023/11/08 03:52:31;;;;;;;5.30;4.80;;;19.50;61.00;;;;;;5090017;28;20051;-34
2023/11/08 03:54:59;;;;;;;5.87;5.13;;;19.50;61.00;;;;;;5092787;28;20025;-34
2023/11/08 03:57:25;;;;;;;5.78;5.18;;;19.50;61.00;;;;;;5095771;28;20032;-34
2023/11/08 03:59:51;;;;;;;5.45;4.95;;;19.50;61.00;;;;;;5093167;28;20044;-34
2023/11/08 04:02:20;;;;;;;6.10;5.50;;;19.50;61.00;;;;;;5095289;28;20073;-34
2023/11/08 04:04:47;;;;;;;5.85;5.25;;;19.50;61.20;;;;;;5091771;28;20032;-34
2023/11/08 04:07:13;;;;;;;5.68;4.97;;;19.50;61.20;;;;;;5097101;28;20040;-33
2023/11/08 04:09:43;;;;;;;5.53;4.90;;;19.40;61.10;;;;;;5098709;28;20032;-34
2023/11/08 04:12:10;;;;;;;5.80;5.30;;;19.40;61.20;;;;;;5095955;28;20064;-34
2023/11/08 04:14:39;;;;;;;5.93;5.43;;;19.40;61.20;;;;;;5095222;28;20035;-34
2023/11/08 04:17:08;;;;;;;5.70;5.20;;;19.40;61.20;;;;;;5104749;28;20033;-34
2023/11/08 04:19:36;;;;;;;5.90;5.32;;;19.40;61.20;;;;;;5105468;28;20024;-33
2023/11/08 04:22:03;;;;;;;6.13;5.53;;;19.40;61.20;;;;;;5097520;28;20032;-34
2023/11/08 04:24:29;;;;;;;7.05;5.55;;;19.40;61.30;;;;;;5098344;28;20035;-34
2023/11/08 04:26:55;;;;;;;6.00;5.40;;;19.30;61.30;;;;;;5097352;28;20032;-34
2023/11/08 04:29:21;;;;;;;6.07;5.47;;;19.30;61.30;;;;;;5093340;28;20028;-34
2023/11/08 04:31:47;;;;;;;5.68;5.18;;;19.30;61.40;;;;;;5101975;28;20043;-33
2023/11/08 04:34:14;;;;;;;6.35;5.75;;;19.30;61.30;;;;;;5100802;28;20036;-34
2023/11/08 04:36:40;;;;;;;6.03;5.43;;;19.30;61.50;;;;;;5101153;28;20036;-34
2023/11/08 04:39:07;;;;;;;6.43;5.45;;;19.20;61.40;;;;;;5096546;28;20041;-34
2023/11/08 04:41:33;;;;;;;5.97;5.40;;;19.20;61.50;;;;;;5104856;28;20607;-34
2023/11/08 04:44:00;;;;;;;6.22;5.65;;;19.20;62.20;;;;;;5102545;28;20059;-34
2023/11/08 04:46:26;;;;;;;6.17;5.57;;;19.20;61.50;;;;;;5089875;28;20108;-34
2023/11/08 04:48:52;;;;;;;6.25;5.50;;;19.20;61.50;;;;;;5093865;28;20493;-34
2023/11/08 04:51:19;;;;;;;6.30;5.70;;;19.20;61.50;;;;;;5089001;28;20099;-34
2023/11/08 04:53:45;;;;;;;6.18;5.57;;;19.20;61.50;;;;;;5094843;28;20024;-34
2023/11/08 04:56:11;;;;;;;6.70;5.70;;;19.10;61.50;;;;;;5088165;28;20070;-34
2023/11/08 04:58:37;;;;;;;5.78;5.28;;;19.10;61.60;;;;;;5093670;28;20056;-34
2023/11/08 05:01:03;;;;;;;6.70;6.03;;;19.10;61.60;;;;;;5089151;28;20032;-34
2023/11/08 05:03:30;;;;;;;6.38;5.78;;;19.10;61.60;;;;;;5097458;28;20038;-33
2023/11/08 05:05:56;;;;;;;6.03;5.43;;;19.10;61.70;;;;;;5096018;28;20116;-33
2023/11/08 05:08:23;;;;;;;6.03;5.43;;;19.10;61.80;;;;;;5090478;28;20032;-34
2023/11/08 05:10:49;;;;;;;5.85;5.35;;;19.00;61.60;;;;;;5087315;28;20036;-34
2023/11/08 05:13:16;;;;;;;6.40;5.80;;;19.00;61.60;;;;;;5090223;28;20138;-34
2023/11/08 05:15:42;;;;;;;6.43;5.68;;;19.00;61.70;;;;;;5099138;28;20052;-34
2023/11/08 05:18:09;;;;;;;6.00;5.40;;;19.00;61.70;;;;;;5094534;28;20390;-35
2023/11/08 05:20:36;;;;;;;6.28;5.68;;;19.00;61.70;;;;;;5090167;28;20281;-35
2023/11/08 05:23:03;;;;;;;6.05;5.45;;;19.00;61.80;;;;;;5086451;28;20063;-35
2023/11/08 05:25:29;;;;;;;6.57;5.97;;;19.00;61.80;;;;;;5094316;28;20445;-34
2023/11/08 05:27:56;;;;;;;6.22;5.63;;;19.00;61.90;;;;;;5093316;28;20028;-34
2023/11/08 05:30:22;;;;;;;6.68;5.88;;;19.00;61.70;;;;;;5096703;28;20043;-34
2023/11/08 05:32:48;;;;;;;6.03;5.50;;;18.90;61.80;;;;;;5096310;28;20080;-34
2023/11/08 05:35:15;;;;;;;6.60;5.90;;;18.90;61.80;;;;;;5096016;28;20032;-34
2023/11/08 05:37:44;;;;;;;6.05;5.45;;;18.90;61.80;;;;;;5090606;28;20044;-34
2023/11/08 05:40:14;;;;;;;6.55;5.90;;;18.90;61.80;;;;;;5095774;28;20020;-34
2023/11/08 05:42:41;;;;;;;6.80;5.57;;;18.90;61.90;;;;;;5096651;28;20026;-35
2023/11/08 05:45:08;;;;;;;6.20;5.60;;;18.90;61.90;;;;;;5092799;28;20051;-34
2023/11/08 05:47:37;;;;;;;6.80;5.68;;;18.80;61.90;;;;;;5093988;28;20035;-34
2023/11/08 05:50:07;;;;;;;6.28;5.68;;;18.80;61.90;;;;;;5095095;28;20056;-34
2023/11/08 05:52:34;;;;;;;6.10;5.60;;;18.80;61.90;;;;;;5089961;28;20076;-34
2023/11/08 05:55:00;;;;;;;6.00;5.40;;;18.80;61.90;;;;;;5100356;28;20096;-34
2023/11/08 05:57:26;;;;;;;7.03;5.72;;;18.80;61.90;;;;;;5098275;28;20793;-34
2023/11/08 05:59:52;;;;;;;7.82;6.15;;;18.80;62.00;;;;;;5094540;28;20038;-34
2023/11/08 06:02:18;;;;;;;6.55;5.90;;;18.80;62.00;;;;;;5096359;28;20453;-34
2023/11/08 06:04:44;;;;;;;6.78;6.18;;;18.80;62.00;;;;;;5095429;28;20025;-34
2023/11/08 06:07:11;;;;;;;7.07;6.30;;;18.70;62.00;;;;;;5099571;28;20028;-34
2023/11/08 06:09:37;;;;;;;6.45;5.85;;;18.70;62.00;;;;;;5096316;28;20044;-34
2023/11/08 06:12:03;;;;;;;6.20;5.60;;;18.70;62.10;;;;;;5091788;28;20044;-34
2023/11/08 06:14:29;;;;;;;5.85;5.30;;;18.70;62.10;;;;;;5092660;28;20035;-34
2023/11/08 06:16:57;;;;;;;7.00;6.30;;;18.70;62.10;;;;;;5098224;28;20511;-34
2023/11/08 06:19:24;;;;;;;6.85;6.15;;;18.70;62.10;;;;;;5102044;28;20032;-34
2023/11/08 06:21:50;;;;;;;7.43;6.30;;;18.70;62.20;;;;;;5102018;28;20032;-34
2023/11/08 06:24:16;;;;;;;6.35;5.68;;;18.70;62.20;;;;;;5101471;28;20127;-34
2023/11/08 06:26:42;;;;;;;6.85;6.20;;;18.60;62.10;;;;;;5094468;28;20087;-34
2023/11/08 06:29:09;;;;;;;6.23;5.63;;;18.60;62.10;;;;;;5094851;28;20030;-34
2023/11/08 06:31:39;;;;;;;6.97;6.28;;;18.60;62.20;;;;;;5102528;28;20044;-33
2023/11/08 06:34:07;;;;;;;6.18;5.57;;;18.60;62.20;;;;;;5097119;28;20040;-34
2023/11/08 06:36:33;;;;;;;6.53;5.90;;;18.60;62.20;;;;;;5089191;28;20093;-34
2023/11/08 06:38:59;;;;;;;6.05;5.50;;;18.60;62.20;;;;;;5099342;28;20053;-34
2023/11/08 06:41:26;;;;;;;6.32;5.72;;;18.60;62.30;;;;;;5097104;28;20039;-34
2023/11/08 06:43:54;;;;;;;6.20;5.60;;;18.50;62.20;;;;;;5094542;28;20290;-34
2023/11/08 06:46:20;;;;;;;;;;;18.50;62.30;;;;;;5103866;28;20032;-34
2023/11/08 06:48:47;;;;;;;6.80;6.00;;;18.50;62.30;;;;;;5101348;28;19915;-34
2023/11/08 06:51:13;;;;;;;;;;;18.50;62.30;;;;;;5092020;28;20049;-34
2023/11/08 06:53:39;;;;;;;6.57;5.72;;;18.50;62.30;;;;;;5090002;28;19911;-34
2023/11/08 06:56:07;;;;;;;6.38;5.78;;;18.50;62.30;;;;;;5087753;28;20100;-34
2023/11/08 06:58:33;;;;;;;6.78;5.80;;;18.50;62.30;;;;;;5102207;28;20072;-34
2023/11/08 07:01:01;;;;;;;6.82;6.13;;;18.40;62.30;;;;;;5091547;28;20032;-33
2023/11/08 07:03:27;;;;;;;7.05;6.35;;;18.40;62.40;;;;;;5096774;28;20057;-34
2023/11/08 07:05:54;;;;;;;6.82;6.13;;;18.40;62.30;;;;;;5100391;28;20024;-33
2023/11/08 07:08:21;;;;;;;6.53;5.93;;;18.40;62.40;;;;;;5098987;28;20032;-34
2023/11/08 07:10:47;;;;;;;6.95;6.25;;;18.40;62.50;;;;;;5094446;28;20028;-34
2023/11/08 07:13:13;;;;;;;7.32;6.63;;;18.40;62.60;;;;;;5088114;28;20101;-34
2023/11/08 07:15:41;;;;;;;7.22;6.25;;;18.40;62.50;;;;;;5093701;28;20077;-34
2023/11/08 07:18:09;;;;;;;6.80;6.10;;;18.40;62.50;;;;;;5093827;28;20032;-34
2023/11/08 07:20:36;;;;;;;6.70;6.10;;;18.30;62.50;;;;;;5101901;28;20035;-34
2023/11/08 07:23:02;;;;;;;8.13;6.18;;;18.30;62.50;;;;;;5100617;28;20028;-33
2023/11/08 07:25:28;;;;;;;6.43;5.82;;;18.30;62.50;;;;;;5089421;28;20032;-34
2023/11/08 07:27:56;;;;;;;8.00;6.47;;;18.30;62.50;;;;;;5092043;28;20050;-33
2023/11/08 07:30:22;;;;;;;7.05;6.35;;;18.30;62.50;;;;;;5097391;28;20027;-34
2023/11/08 07:32:48;;;;;;;7.20;6.50;;;18.30;62.60;;;;;;5098309;28;20040;-34
2023/11/08 07:35:14;;;;;;;7.15;6.45;;;18.30;62.60;;;;;;5099925;28;20036;-34
2023/11/08 07:37:40;;;;;;;7.05;6.30;;;18.20;62.50;;;;;;5098102;28;20106;-34
2023/11/08 07:40:07;;;;;;;7.15;6.43;;;18.20;62.60;;;;;;5093925;28;20032;-34
2023/11/08 07:42:34;;;;;;;6.60;5.90;;;18.20;62.70;;;;;;5094653;28;20036;-34
2023/11/08 07:45:00;;;;;;;7.20;6.50;;;18.20;62.60;;;;;;5092379;28;21013;-34
2023/11/08 07:47:27;;;;;;;6.55;5.75;;;18.20;62.70;;;;;;5098752;28;20028;-34
2023/11/08 07:49:53;;;;;;;7.82;6.40;;;18.20;62.70;;;;;;5100006;28;20047;-34
2023/11/08 07:52:19;;;;;;;6.30;5.70;;;18.20;62.70;;;;;;5101545;28;20052;-34
2023/11/08 07:54:46;;;;;;;7.18;6.47;;;18.20;62.70;;;;;;5100836;28;20031;-34
2023/11/08 07:57:12;;;;;;;6.82;6.22;;;18.10;62.70;;;;;;5093874;28;20054;-34
2023/11/08 07:59:38;;;;;;;6.57;6.03;;;18.20;62.80;;;;;;5094380;28;20052;-34
2023/11/08 08:02:04;;;;;;;6.95;6.25;;;18.10;62.70;;;;;;5097826;28;20036;-34
2023/11/08 08:04:31;;;;;;;7.05;6.35;;;18.10;62.70;;;;;;5092604;28;20050;-34
2023/11/08 08:06:57;;;;;;;7.32;5.97;;;18.10;62.80;;;;;;5088064;28;20032;-34
2023/11/08 08:09:24;;;;;;;6.75;6.07;;;18.10;62.70;;;;;;5082346;28;20542;-34
2023/11/08 08:11:51;;;;;;;6.97;5.90;;;18.00;62.70;;;;;;5094340;28;20044;-34
2023/11/08 08:14:17;;;;;;;6.80;6.18;;;18.00;62.80;;;;;;5095054;28;20036;-34
2023/11/08 08:16:44;;;;;;;8.05;6.72;;;18.00;62.80;;;;;;5094716;28;20051;-34
2023/11/08 08:19:10;;;;;;;7.32;6.53;;;18.00;62.80;;;;;;5093574;28;20028;-34
2023/11/08 08:21:37;;;;;;;6.85;6.15;;;18.00;62.80;;;;;;5087481;28;20068;-34
2023/11/08 08:24:03;;;;;;;7.40;6.22;;;18.00;62.80;;;;;;5091056;28;20025;-34
2023/11/08 08:26:29;;;;;;;7.57;6.28;;;18.00;62.90;;;;;;5091729;28;20032;-34
2023/11/08 08:28:56;;;;;;;7.07;6.38;;;18.00;62.90;;;;;;5090608;28;20036;-34
2023/11/08 08:31:22;;;;;;;6.72;6.03;;;17.90;62.80;;;;;;5083013;28;20036;-34
2023/11/08 08:33:50;;;;;;;7.00;6.30;;;17.90;62.90;;;;;;5092218;28;20044;-34
2023/11/08 08:36:17;;;;;;;8.18;6.10;;;17.90;62.90;;;;;;5090487;28;20024;-34
2023/11/08 08:38:44;;;;;;;6.63;6.03;;;17.90;63.00;;;;;;5083626;28;20127;-34
2023/11/08 08:41:10;;;;;;;6.97;6.22;;;17.90;63.00;;;;;;5093622;28;20024;-34
2023/11/08 08:43:36;;;;;;;7.93;6.88;;;17.90;63.00;;;;;;5094303;28;20579;-34
2023/11/08 08:46:04;;;;;;;5.40;4.90;;;17.90;63.00;;;;;;5092068;28;20044;-34
2023/11/08 08:48:29;;;;;;;;;;;17.80;63.00;;;;;;5096680;28;20303;-34
2023/11/08 08:50:56;;;;;;;7.55;6.75;;;17.80;63.00;;;;;;5099907;28;19916;-34
2023/11/08 08:53:22;;;;;;;6.75;6.05;;;17.80;63.00;;;;;;5092932;28;20232;-34
2023/11/08 08:55:48;;;;;;;6.82;6.15;;;17.80;63.00;;;;;;5095341;28;20080;-34
2023/11/08 08:58:14;;;;;;;6.47;5.80;;;17.80;63.00;;;;;;5092078;28;20783;-34
2023/11/08 09:00:43;;;;;;;7.00;6.30;;;17.80;63.10;;;;;;5097149;28;20035;-34
2023/11/08 09:03:09;;;;;;;8.38;6.65;;;17.80;63.10;;;;;;5101105;28;20051;-34
2023/11/08 09:05:35;;;;;;;7.15;6.45;;;17.70;63.00;;;;;;5088633;28;20024;-34
2023/11/08 09:08:02;;;;;;;7.72;6.53;;;17.70;63.10;;;;;;5091138;28;20028;-34
2023/11/08 09:10:29;;;;;;;7.30;6.32;;;17.70;63.10;;;;;;5087045;28;20032;-34
2023/11/08 09:12:55;;;;;;;7.00;6.30;;;17.70;63.20;;;;;;5087201;28;20075;-34
2023/11/08 09:15:21;;;;;;;6.28;5.60;;;17.70;63.10;;;;;;5097149;28;20034;-34
2023/11/08 09:17:47;;;;;;;7.05;6.35;;;17.70;63.20;;;;;;5104188;28;20045;-34
2023/11/08 09:20:13;;;;;;;6.75;6.15;;;17.70;63.20;;;;;;5104570;28;20024;-34
2023/11/08 09:22:40;;;;;;;7.32;6.63;;;17.70;63.20;;;;;;5104667;28;20027;-34
2023/11/08 09:25:08;;;;;;;7.22;6.53;;;17.70;63.20;;;;;;5101394;28;20024;-34
2023/11/08 09:27:35;;;;;;;7.47;6.45;;;17.60;63.20;;;;;;5093007;28;20032;-34
2023/11/08 09:30:03;;;;;;;6.68;6.00;;;17.60;63.20;;;;;;5094134;28;20035;-34
2023/11/08 09:32:29;;;;;;;6.95;6.28;;;17.60;63.20;;;;;;5086274;28;20100;-34
2023/11/08 09:34:56;;;;;;;7.57;6.88;;;17.60;63.30;;;;;;5095452;28;20039;-34
2023/11/08 09:37:22;;;;;;;6.82;6.13;;;17.60;63.30;;;;;;5089672;28;20103;-34
2023/11/08 09:39:50;;;;;;;7.60;6.75;;;17.60;63.30;;;;;;5086716;28;20032;-34
2023/11/08 09:42:21;;;;;;;6.88;6.18;;;17.60;63.30;;;;;;5089362;28;20032;-34
2023/11/08 09:44:47;;;;;;;7.00;6.30;;;17.50;63.30;;;;;;5095584;28;20044;-34
2023/11/08 09:47:14;;;;;;;7.50;6.80;;;17.50;63.40;;;;;;5095954;28;20032;-34
2023/11/08 09:49:41;;;;;;;6.75;6.15;;;17.50;63.40;;;;;;5092402;28;20030;-34
2023/11/08 09:52:07;;;;;;;7.45;6.65;;;17.50;63.40;;;;;;5095941;28;20086;-34
2023/11/08 09:54:34;;;;;;;7.40;6.63;;;17.50;63.40;;;;;;5096266;28;20028;-34
2023/11/08 09:57:00;;;;;;;7.47;6.78;;;17.50;63.40;;;;;;5087476;28;20036;-34
2023/11/08 09:59:28;;;;;;;7.40;6.70;;;17.50;63.40;;;;;;5096939;28;20036;-34
2023/11/08 10:01:54;;;;;;;;;;;17.40;63.40;;;;;;5086654;28;20058;-34
2023/11/08 10:04:21;;;;;;;6.90;6.20;;;17.40;63.40;;;;;;5097817;28;19971;-34
2023/11/08 10:07:07;;;;;;;7.45;6.75;;;17.40;63.50;;;;;;5086588;28;20034;-34
2023/11/08 10:09:36;;;;;;;7.60;6.25;;;17.40;63.50;;;;;;5073408;28;20040;-34
2023/11/08 10:12:08;;;;;;;7.38;6.68;;;17.40;63.60;;;;;;5070914;28;20084;-34
2023/11/08 10:14:35;;;;;;;6.43;5.82;;;17.40;63.60;;;;;;5034760;28;20045;-34
2023/11/08 10:17:03;;;;;;;6.60;6.00;;;17.40;63.60;;;;;;5076858;28;20032;-34
2023/11/08 10:19:44;;;;;;;7.53;6.80;;;17.30;63.60;;;;;;5081273;28;20033;-33
2023/11/08 10:22:19;;;;;;;7.22;6.53;;;17.30;63.70;;;;;;5081327;28;20036;-34
2023/11/08 10:25:00;;;;;;;7.10;6.40;;;17.30;63.60;;;;;;5077092;28;20393;-34
2023/11/08 10:27:27;;;;;;;6.93;6.22;;;17.30;63.60;;;;;;5081499;28;20115;-34
2023/11/08 10:29:56;;;;;;;7.18;6.53;;;17.30;63.70;;;;;;5080783;28;20028;-34
2023/11/08 10:32:24;;;;;;;7.25;6.55;;;17.30;63.70;;;;;;5081456;28;20056;-34
2023/11/08 10:34:51;;;;;;;6.85;6.20;;;17.30;63.70;;;;;;5080383;28;20040;-34
2023/11/08 10:37:27;;;;;;;7.30;6.57;;;17.30;63.70;;;;;;5081385;28;20058;-34
2023/11/08 10:39:56;;;;;;;7.50;6.68;;;17.30;63.70;;;;;;5078016;28;20028;-34
2023/11/08 10:42:24;;;;;;;7.95;6.55;;;17.20;63.60;;;;;;5081559;28;20033;-35
2023/11/08 10:44:51;;;;;;;7.32;6.38;;;17.20;63.70;;;;;;5046242;28;20116;-34
2023/11/08 10:47:18;;;;;;;7.80;6.65;;;17.20;63.70;;;;;;5101327;28;20050;-34
2023/11/08 10:49:50;;;;;;;7.63;6.72;;;17.20;63.70;;;;;;5094576;28;20037;-34
2023/11/08 10:52:18;;;;;;;7.13;6.43;;;17.20;63.70;;;;;;5095427;28;20047;-34
2023/11/08 10:54:44;;;;;;;7.82;6.63;;;17.20;63.70;;;;;;5101474;28;20039;-34
2023/11/08 10:57:13;;;;;;;7.38;6.68;;;17.20;63.80;;;;;;5101972;28;20028;-34
2023/11/08 10:59:41;;;;;;;7.50;6.85;;;17.20;64.60;;;;;;5102091;28;20028;-34
2023/11/08 11:02:40;;;;;;;7.38;6.50;;;17.10;63.80;;;;;;5092292;28;20028;-34
2023/11/08 11:05:12;;;;;;;7.25;6.55;;;17.10;63.80;;;;;;5101181;28;20020;-34
2023/11/08 11:07:42;;;;;;;7.20;6.28;;;17.10;63.90;;;;;;5098250;28;20064;-34
2023/11/08 11:10:09;;;;;;;7.03;6.38;;;17.10;63.90;;;;;;5087244;28;20028;-34
2023/11/08 11:13:02;;;;;;;6.93;6.13;;;17.10;63.80;;;;;;5101849;28;20047;-34
2023/11/08 11:16:07;;;;;;;7.65;6.65;;;17.10;63.90;;;;;;5097012;28;20020;-34
2023/11/08 11:18:41;;;;;;;7.22;6.55;;;17.10;64.00;;;;;;5073166;28;20036;-34
2023/11/08 11:21:23;;;;;;;7.57;6.78;;;17.00;63.90;;;;;;5100042;28;20028;-34
2023/11/08 11:23:49;;;;;;;7.35;6.65;;;17.00;63.90;;;;;;5082832;28;20021;-34
2023/11/08 11:26:19;;;;;;;6.80;6.13;;;17.00;63.90;;;;;;5097210;28;20031;-34
2023/11/08 11:28:58;;;;;;;7.65;6.50;;;17.00;64.00;;;;;;5084233;28;20442;-34
2023/11/08 11:31:34;;;;;;;7.03;6.35;;;17.10;64.60;;;;;;5092195;28;20046;-34
2023/11/08 11:34:00;;;;;;;6.65;5.97;;;17.20;64.70;;;;;;5091359;28;20028;-34
2023/11/08 11:36:27;;;;;;;6.32;5.78;;;17.20;64.40;;;;;;5087366;28;20493;-34
2023/11/08 11:39:12;;;;;;;7.55;6.75;;;17.10;64.40;;;;;;5084905;28;20044;-34
2023/11/08 11:41:38;;;;;;;7.32;6.15;;;17.10;64.50;;;;;;5087976;28;20048;-34
2023/11/08 11:44:10;;;;;;;6.03;5.47;;;17.10;64.50;;;;;;5084049;28;20120;-34
2023/11/08 11:46:36;;;;;;;6.97;6.32;;;17.10;64.40;;;;;;5095847;28;20068;-34
2023/11/08 11:49:09;;;;;;;6.90;6.20;;;17.00;64.40;;;;;;5099384;28;20560;-34
2023/11/08 11:51:40;;;;;;;6.57;5.95;;;17.00;64.30;;;;;;5083226;28;20051;-34
2023/11/08 11:54:06;;;;;;;7.20;6.03;;;17.00;64.30;;;;;;5099180;28;20066;-34
2023/11/08 11:56:32;;;;;;;7.10;6.40;;;17.00;64.40;;;;;;5091911;28;20028;-34
2023/11/08 11:58:59;;;;;;;6.90;6.28;;;17.00;64.40;;;;;;5092871;28;20052;-34
2023/11/08 12:01:27;;;;;;;6.10;5.60;;;17.00;64.60;;;;;;5089408;28;20078;-34
2023/11/08 12:03:53;;;;;;;6.00;5.38;;;17.10;65.00;;;;;;5091442;28;20131;-34
2023/11/08 12:06:21;;;;;;;6.20;5.60;;;17.20;65.00;;;;;;5083040;28;20078;-34
2023/11/08 12:08:47;;;;;;;6.20;5.38;;;17.10;64.70;;;;;;5084186;28;20043;-34
2023/11/08 12:11:17;;;;;;;6.50;5.90;;;17.10;64.70;;;;;;5091625;28;20052;-34
2023/11/08 12:13:50;;;;;;;6.30;5.70;;;17.10;64.70;;;;;;5091652;28;20036;-35
2023/11/08 12:16:17;;;;;;;8.57;5.70;;;17.10;64.80;;;;;;5092418;28;20029;-34
2023/11/08 12:18:44;;;;;;;7.28;6.10;;;17.00;64.70;;;;;;5093107;28;20032;-35
2023/11/08 12:21:12;;;;;;;5.53;5.03;;;17.00;64.70;;;;;;5088754;28;21269;-35
2023/11/08 12:23:40;;;;;;;6.47;5.10;;;17.00;64.70;;;;;;5100148;28;20028;-34
2023/11/08 12:26:07;;;;;;;6.15;5.55;;;17.10;65.30;;;;;;5097253;28;20059;-35
2023/11/08 12:28:33;;;;;;;5.50;4.93;;;17.10;65.10;;;;;;5103056;28;20032;-35
2023/11/08 12:31:06;;;;;;;5.93;5.43;;;17.10;65.00;;;;;;5102120;28;20036;-35
2023/11/08 12:33:33;;;;;;;6.00;5.40;;;17.10;64.90;;;;;;5101344;28;20040;-33
2023/11/08 12:36:03;;;;;;;5.68;5.13;;;17.10;64.90;;;;;;5105111;28;20043;-34
2023/11/08 12:38:32;;;;;;;6.43;5.78;;;17.10;65.00;;;;;;5101905;28;20039;-34
2023/11/08 12:41:06;;;;;;;6.65;6.05;;;17.00;64.80;;;;;;5097886;28;20066;-34
2023/11/08 12:43:33;;;;;;;5.60;5.10;;;17.00;64.90;;;;;;5104410;28;20070;-34
2023/11/08 12:46:14;;;;;;;6.80;5.47;;;17.00;64.80;;;;;;5101140;28;20031;-34
2023/11/08 12:48:40;;;;;;;6.30;5.45;;;17.00;64.90;;;;;;5102605;28;20038;-33